sensor_id;sensor_type;location;lat;lon;timestamp;P1;durP1;ratioP1;P2;durP2;ratioP2
54307;SDS011;40208;39.778;2.710;2023-08-06T00:00:46;8.45;;;1.80;;
54307;SDS011;40208;39.778;2.710;2023-08-06T00:03:31;5.57;;;1.80;;
54307;SDS011;40208;39.778;2.710;2023-08-06T00:06:16;4.85;;;1.90;;
54307;SDS011;40208;39.778;2.710;2023-08-06T00:09:01;5.25;;;1.63;;
54307;SDS011;40208;39.778;2.710;2023-08-06T00:11:46;3.08;;;1.70;;
54307;SDS011;40208;39.778;2.710;2023-08-06T00:14:30;3.55;;;1.88;;
54307;SDS011;40208;39.778;2.710;2023-08-06T00:17:15;4.15;;;1.92;;
54307;SDS011;40208;39.778;2.710;2023-08-06T00:20:01;2.90;;;1.58;;
54307;SDS011;40208;39.778;2.710;2023-08-06T00:22:50;4.95;;;1.63;;
54307;SDS011;40208;39.778;2.710;2023-08-06T00:25:35;5.13;;;2.10;;
54307;SDS011;40208;39.778;2.710;2023-08-06T00:28:20;6.93;;;1.80;;
54307;SDS011;40208;39.778;2.710;2023-08-06T00:31:05;5.22;;;1.92;;
54307;SDS011;40208;39.778;2.710;2023-08-06T00:33:50;4.53;;;1.77;;
54307;SDS011;40208;39.778;2.710;2023-08-06T00:36:35;3.88;;;1.90;;
54307;SDS011;40208;39.778;2.710;2023-08-06T00:39:20;4.03;;;1.90;;
54307;SDS011;40208;39.778;2.710;2023-08-06T00:42:04;2.88;;;1.85;;
54307;SDS011;40208;39.778;2.710;2023-08-06T00:44:49;4.85;;;2.13;;
54307;SDS011;40208;39.778;2.710;2023-08-06T00:47:34;4.75;;;2.10;;
54307;SDS011;40208;39.778;2.710;2023-08-06T00:50:19;6.32;;;2.08;;
54307;SDS011;40208;39.778;2.710;2023-08-06T00:53:05;5.80;;;1.95;;
54307;SDS011;40208;39.778;2.710;2023-08-06T00:55:50;2.95;;;1.50;;
54307;SDS011;40208;39.778;2.710;2023-08-06T00:58:35;4.00;;;1.80;;
54307;SDS011;40208;39.778;2.710;2023-08-06T01:01:21;4.30;;;1.73;;
54307;SDS011;40208;39.778;2.710;2023-08-06T01:04:06;4.35;;;1.70;;
54307;SDS011;40208;39.778;2.710;2023-08-06T01:12:34;7.15;;;2.35;;
54307;SDS011;40208;39.778;2.710;2023-08-06T01:15:46;4.97;;;2.10;;
54307;SDS011;40208;39.778;2.710;2023-08-06T01:18:33;4.72;;;2.20;;
54307;SDS011;40208;39.778;2.710;2023-08-06T01:21:18;4.15;;;2.00;;
54307;SDS011;40208;39.778;2.710;2023-08-06T01:24:03;3.95;;;2.08;;
54307;SDS011;40208;39.778;2.710;2023-08-06T01:26:50;4.30;;;1.77;;
54307;SDS011;40208;39.778;2.710;2023-08-06T01:29:41;5.35;;;2.28;;
54307;SDS011;40208;39.778;2.710;2023-08-06T01:32:32;4.57;;;2.47;;
54307;SDS011;40208;39.778;2.710;2023-08-06T01:35:19;2.67;;;1.88;;
54307;SDS011;40208;39.778;2.710;2023-08-06T01:38:05;4.38;;;2.28;;
54307;SDS011;40208;39.778;2.710;2023-08-06T01:40:50;4.55;;;2.03;;
54307;SDS011;40208;39.778;2.710;2023-08-06T01:43:35;5.05;;;1.88;;
54307;SDS011;40208;39.778;2.710;2023-08-06T01:46:20;4.75;;;2.03;;
54307;SDS011;40208;39.778;2.710;2023-08-06T01:49:04;5.93;;;1.85;;
54307;SDS011;40208;39.778;2.710;2023-08-06T01:51:49;6.70;;;2.08;;
54307;SDS011;40208;39.778;2.710;2023-08-06T01:54:34;4.05;;;1.90;;
54307;SDS011;40208;39.778;2.710;2023-08-06T01:57:18;4.30;;;2.08;;
54307;SDS011;40208;39.778;2.710;2023-08-06T02:00:03;6.75;;;2.25;;
54307;SDS011;40208;39.778;2.710;2023-08-06T02:02:48;5.53;;;2.15;;
54307;SDS011;40208;39.778;2.710;2023-08-06T02:05:33;5.55;;;1.85;;
54307;SDS011;40208;39.778;2.710;2023-08-06T02:08:18;3.10;;;1.83;;
54307;SDS011;40208;39.778;2.710;2023-08-06T02:11:03;6.47;;;2.08;;
54307;SDS011;40208;39.778;2.710;2023-08-06T02:13:48;4.43;;;2.10;;
54307;SDS011;40208;39.778;2.710;2023-08-06T02:16:32;5.78;;;2.05;;
54307;SDS011;40208;39.778;2.710;2023-08-06T02:19:17;4.03;;;1.83;;
54307;SDS011;40208;39.778;2.710;2023-08-06T02:22:02;3.47;;;1.77;;
54307;SDS011;40208;39.778;2.710;2023-08-06T02:24:48;3.35;;;2.05;;
54307;SDS011;40208;39.778;2.710;2023-08-06T02:27:33;4.47;;;1.90;;
54307;SDS011;40208;39.778;2.710;2023-08-06T02:30:18;9.55;;;2.00;;
54307;SDS011;40208;39.778;2.710;2023-08-06T02:33:03;3.55;;;1.95;;
54307;SDS011;40208;39.778;2.710;2023-08-06T02:35:48;3.75;;;1.58;;
54307;SDS011;40208;39.778;2.710;2023-08-06T02:38:33;4.13;;;2.00;;
54307;SDS011;40208;39.778;2.710;2023-08-06T02:41:18;2.42;;;1.42;;
54307;SDS011;40208;39.778;2.710;2023-08-06T02:44:03;6.50;;;1.90;;
54307;SDS011;40208;39.778;2.710;2023-08-06T02:46:48;4.20;;;1.77;;
54307;SDS011;40208;39.778;2.710;2023-08-06T02:49:32;3.33;;;1.70;;
54307;SDS011;40208;39.778;2.710;2023-08-06T02:52:18;5.13;;;2.30;;
54307;SDS011;40208;39.778;2.710;2023-08-06T02:55:03;6.97;;;2.08;;
54307;SDS011;40208;39.778;2.710;2023-08-06T02:57:48;8.75;;;2.72;;
54307;SDS011;40208;39.778;2.710;2023-08-06T03:00:33;5.18;;;1.98;;
54307;SDS011;40208;39.778;2.710;2023-08-06T03:03:17;6.03;;;1.73;;
54307;SDS011;40208;39.778;2.710;2023-08-06T03:06:02;3.65;;;1.92;;
54307;SDS011;40208;39.778;2.710;2023-08-06T03:08:47;4.35;;;1.60;;
54307;SDS011;40208;39.778;2.710;2023-08-06T03:11:32;3.33;;;2.03;;
54307;SDS011;40208;39.778;2.710;2023-08-06T03:14:17;7.00;;;1.60;;
54307;SDS011;40208;39.778;2.710;2023-08-06T03:17:02;4.05;;;1.60;;
54307;SDS011;40208;39.778;2.710;2023-08-06T03:19:47;5.57;;;1.45;;
54307;SDS011;40208;39.778;2.710;2023-08-06T03:22:32;4.32;;;1.67;;
54307;SDS011;40208;39.778;2.710;2023-08-06T03:25:17;5.22;;;1.70;;
54307;SDS011;40208;39.778;2.710;2023-08-06T03:28:02;5.82;;;2.20;;
54307;SDS011;40208;39.778;2.710;2023-08-06T03:30:47;4.72;;;1.80;;
54307;SDS011;40208;39.778;2.710;2023-08-06T03:33:31;4.65;;;1.92;;
54307;SDS011;40208;39.778;2.710;2023-08-06T03:36:16;4.97;;;2.00;;
54307;SDS011;40208;39.778;2.710;2023-08-06T03:39:01;4.18;;;1.90;;
54307;SDS011;40208;39.778;2.710;2023-08-06T03:41:46;6.32;;;1.83;;
54307;SDS011;40208;39.778;2.710;2023-08-06T03:44:31;3.70;;;2.10;;
54307;SDS011;40208;39.778;2.710;2023-08-06T03:47:15;3.88;;;1.45;;
54307;SDS011;40208;39.778;2.710;2023-08-06T03:50:00;4.95;;;1.88;;
54307;SDS011;40208;39.778;2.710;2023-08-06T03:52:45;7.38;;;1.83;;
54307;SDS011;40208;39.778;2.710;2023-08-06T03:55:29;5.03;;;2.13;;
54307;SDS011;40208;39.778;2.710;2023-08-06T03:58:14;4.03;;;1.58;;
54307;SDS011;40208;39.778;2.710;2023-08-06T04:00:59;3.72;;;1.58;;
54307;SDS011;40208;39.778;2.710;2023-08-06T04:03:45;5.55;;;2.03;;
54307;SDS011;40208;39.778;2.710;2023-08-06T04:06:30;9.88;;;2.28;;
54307;SDS011;40208;39.778;2.710;2023-08-06T04:09:14;4.93;;;2.20;;
54307;SDS011;40208;39.778;2.710;2023-08-06T04:11:59;7.60;;;2.38;;
54307;SDS011;40208;39.778;2.710;2023-08-06T04:14:46;7.05;;;1.80;;
54307;SDS011;40208;39.778;2.710;2023-08-06T04:17:30;4.78;;;2.03;;
54307;SDS011;40208;39.778;2.710;2023-08-06T04:20:15;5.35;;;1.80;;
54307;SDS011;40208;39.778;2.710;2023-08-06T04:23:05;5.38;;;2.15;;
54307;SDS011;40208;39.778;2.710;2023-08-06T04:25:50;5.20;;;1.92;;
54307;SDS011;40208;39.778;2.710;2023-08-06T04:28:34;5.60;;;1.58;;
54307;SDS011;40208;39.778;2.710;2023-08-06T04:31:19;5.80;;;2.17;;
54307;SDS011;40208;39.778;2.710;2023-08-06T04:34:04;3.08;;;1.60;;
54307;SDS011;40208;39.778;2.710;2023-08-06T04:36:49;6.40;;;1.60;;
54307;SDS011;40208;39.778;2.710;2023-08-06T04:39:33;3.13;;;1.88;;
54307;SDS011;40208;39.778;2.710;2023-08-06T04:42:18;4.97;;;1.85;;
54307;SDS011;40208;39.778;2.710;2023-08-06T04:45:03;4.32;;;1.85;;
54307;SDS011;40208;39.778;2.710;2023-08-06T04:47:48;2.70;;;1.63;;
54307;SDS011;40208;39.778;2.710;2023-08-06T04:50:33;5.95;;;2.17;;
54307;SDS011;40208;39.778;2.710;2023-08-06T04:53:18;3.30;;;1.80;;
54307;SDS011;40208;39.778;2.710;2023-08-06T04:56:03;4.40;;;1.92;;
54307;SDS011;40208;39.778;2.710;2023-08-06T04:58:48;4.65;;;2.08;;
54307;SDS011;40208;39.778;2.710;2023-08-06T05:01:33;4.53;;;1.88;;
54307;SDS011;40208;39.778;2.710;2023-08-06T05:04:18;4.57;;;1.77;;
54307;SDS011;40208;39.778;2.710;2023-08-06T05:07:02;5.15;;;1.70;;
54307;SDS011;40208;39.778;2.710;2023-08-06T05:09:47;5.85;;;1.88;;
54307;SDS011;40208;39.778;2.710;2023-08-06T05:12:32;4.20;;;1.90;;
54307;SDS011;40208;39.778;2.710;2023-08-06T05:15:17;4.28;;;1.63;;
54307;SDS011;40208;39.778;2.710;2023-08-06T05:18:02;6.38;;;1.70;;
54307;SDS011;40208;39.778;2.710;2023-08-06T05:20:47;7.07;;;2.30;;
54307;SDS011;40208;39.778;2.710;2023-08-06T05:23:32;6.82;;;2.22;;
54307;SDS011;40208;39.778;2.710;2023-08-06T05:26:17;4.38;;;1.60;;
54307;SDS011;40208;39.778;2.710;2023-08-06T05:29:03;4.35;;;1.63;;
54307;SDS011;40208;39.778;2.710;2023-08-06T05:31:48;8.52;;;2.42;;
54307;SDS011;40208;39.778;2.710;2023-08-06T05:34:33;8.00;;;1.58;;
54307;SDS011;40208;39.778;2.710;2023-08-06T05:37:18;2.75;;;1.80;;
54307;SDS011;40208;39.778;2.710;2023-08-06T05:40:03;5.10;;;1.98;;
54307;SDS011;40208;39.778;2.710;2023-08-06T05:42:48;3.72;;;2.00;;
54307;SDS011;40208;39.778;2.710;2023-08-06T05:45:33;6.45;;;2.30;;
54307;SDS011;40208;39.778;2.710;2023-08-06T05:48:18;3.65;;;1.65;;
54307;SDS011;40208;39.778;2.710;2023-08-06T05:51:03;8.10;;;2.20;;
54307;SDS011;40208;39.778;2.710;2023-08-06T05:53:48;7.65;;;2.00;;
54307;SDS011;40208;39.778;2.710;2023-08-06T05:56:34;5.13;;;1.67;;
54307;SDS011;40208;39.778;2.710;2023-08-06T05:59:19;6.68;;;1.60;;
54307;SDS011;40208;39.778;2.710;2023-08-06T06:02:04;5.53;;;1.70;;
54307;SDS011;40208;39.778;2.710;2023-08-06T06:04:48;8.63;;;2.05;;
54307;SDS011;40208;39.778;2.710;2023-08-06T06:07:33;4.68;;;1.95;;
54307;SDS011;40208;39.778;2.710;2023-08-06T06:10:18;4.57;;;1.77;;
54307;SDS011;40208;39.778;2.710;2023-08-06T06:13:03;5.75;;;1.90;;
54307;SDS011;40208;39.778;2.710;2023-08-06T06:15:48;5.55;;;1.73;;
54307;SDS011;40208;39.778;2.710;2023-08-06T06:18:32;3.85;;;1.70;;
54307;SDS011;40208;39.778;2.710;2023-08-06T06:21:17;5.43;;;1.60;;
54307;SDS011;40208;39.778;2.710;2023-08-06T06:24:02;6.47;;;1.83;;
54307;SDS011;40208;39.778;2.710;2023-08-06T06:26:48;7.15;;;1.60;;
54307;SDS011;40208;39.778;2.710;2023-08-06T06:29:33;3.78;;;1.80;;
54307;SDS011;40208;39.778;2.710;2023-08-06T06:32:18;8.40;;;1.77;;
54307;SDS011;40208;39.778;2.710;2023-08-06T06:35:02;8.18;;;2.53;;
54307;SDS011;40208;39.778;2.710;2023-08-06T06:37:47;13.90;;;1.85;;
54307;SDS011;40208;39.778;2.710;2023-08-06T06:40:33;7.18;;;1.98;;
54307;SDS011;40208;39.778;2.710;2023-08-06T06:43:18;7.18;;;1.95;;
54307;SDS011;40208;39.778;2.710;2023-08-06T06:46:03;7.10;;;2.13;;
54307;SDS011;40208;39.778;2.710;2023-08-06T06:48:47;3.83;;;1.27;;
54307;SDS011;40208;39.778;2.710;2023-08-06T06:51:32;7.00;;;1.50;;
54307;SDS011;40208;39.778;2.710;2023-08-06T06:54:17;8.02;;;1.88;;
54307;SDS011;40208;39.778;2.710;2023-08-06T06:57:02;5.60;;;1.90;;
54307;SDS011;40208;39.778;2.710;2023-08-06T06:59:47;14.88;;;1.85;;
54307;SDS011;40208;39.778;2.710;2023-08-06T07:02:32;8.82;;;2.13;;
54307;SDS011;40208;39.778;2.710;2023-08-06T07:05:17;11.00;;;1.92;;
54307;SDS011;40208;39.778;2.710;2023-08-06T07:08:02;11.95;;;2.22;;
54307;SDS011;40208;39.778;2.710;2023-08-06T07:10:47;8.00;;;1.90;;
54307;SDS011;40208;39.778;2.710;2023-08-06T07:13:32;16.55;;;2.13;;
54307;SDS011;40208;39.778;2.710;2023-08-06T07:16:17;6.57;;;1.40;;
54307;SDS011;40208;39.778;2.710;2023-08-06T07:19:02;4.10;;;1.10;;
54307;SDS011;40208;39.778;2.710;2023-08-06T07:21:46;8.05;;;1.77;;
54307;SDS011;40208;39.778;2.710;2023-08-06T07:24:31;7.80;;;1.88;;
54307;SDS011;40208;39.778;2.710;2023-08-06T07:27:16;6.20;;;1.23;;
54307;SDS011;40208;39.778;2.710;2023-08-06T07:30:01;6.20;;;1.30;;
54307;SDS011;40208;39.778;2.710;2023-08-06T07:32:47;8.52;;;1.27;;
54307;SDS011;40208;39.778;2.710;2023-08-06T07:35:32;4.50;;;1.20;;
54307;SDS011;40208;39.778;2.710;2023-08-06T07:38:19;8.77;;;1.75;;
54307;SDS011;40208;39.778;2.710;2023-08-06T07:41:11;7.97;;;1.50;;
54307;SDS011;40208;39.778;2.710;2023-08-06T07:43:56;7.47;;;1.48;;
54307;SDS011;40208;39.778;2.710;2023-08-06T07:46:41;8.35;;;1.48;;
54307;SDS011;40208;39.778;2.710;2023-08-06T07:49:26;6.22;;;1.88;;
54307;SDS011;40208;39.778;2.710;2023-08-06T07:52:11;7.15;;;1.67;;
54307;SDS011;40208;39.778;2.710;2023-08-06T07:54:55;6.88;;;1.70;;
54307;SDS011;40208;39.778;2.710;2023-08-06T07:57:40;6.68;;;1.35;;
54307;SDS011;40208;39.778;2.710;2023-08-06T08:00:25;4.88;;;1.23;;
54307;SDS011;40208;39.778;2.710;2023-08-06T08:03:10;17.38;;;4.70;;
54307;SDS011;40208;39.778;2.710;2023-08-06T08:05:56;12.18;;;4.15;;
54307;SDS011;40208;39.778;2.710;2023-08-06T08:08:44;14.50;;;4.72;;
54307;SDS011;40208;39.778;2.710;2023-08-06T08:11:29;19.35;;;5.22;;
54307;SDS011;40208;39.778;2.710;2023-08-06T08:14:13;22.33;;;7.68;;
54307;SDS011;40208;39.778;2.710;2023-08-06T08:16:58;16.20;;;5.95;;
54307;SDS011;40208;39.778;2.710;2023-08-06T08:19:43;15.88;;;5.57;;
54307;SDS011;40208;39.778;2.710;2023-08-06T08:22:28;9.20;;;2.70;;
54307;SDS011;40208;39.778;2.710;2023-08-06T08:25:13;10.13;;;2.38;;
54307;SDS011;40208;39.778;2.710;2023-08-06T08:27:58;14.73;;;2.42;;
54307;SDS011;40208;39.778;2.710;2023-08-06T08:30:42;9.32;;;2.30;;
54307;SDS011;40208;39.778;2.710;2023-08-06T08:33:27;6.68;;;1.52;;
54307;SDS011;40208;39.778;2.710;2023-08-06T08:36:12;11.52;;;1.63;;
54307;SDS011;40208;39.778;2.710;2023-08-06T08:38:57;37.47;;;20.90;;
54307;SDS011;40208;39.778;2.710;2023-08-06T08:41:42;160.32;;;80.57;;
54307;SDS011;40208;39.778;2.710;2023-08-06T08:44:27;196.00;;;98.68;;
54307;SDS011;40208;39.778;2.710;2023-08-06T08:47:13;164.02;;;76.90;;
54307;SDS011;40208;39.778;2.710;2023-08-06T08:50:00;89.00;;;44.17;;
54307;SDS011;40208;39.778;2.710;2023-08-06T08:52:45;84.82;;;44.75;;
54307;SDS011;40208;39.778;2.710;2023-08-06T08:55:33;53.83;;;28.73;;
54307;SDS011;40208;39.778;2.710;2023-08-06T08:58:18;44.72;;;24.67;;
54307;SDS011;40208;39.778;2.710;2023-08-06T09:01:03;54.70;;;23.40;;
54307;SDS011;40208;39.778;2.710;2023-08-06T09:03:48;21.13;;;10.63;;
54307;SDS011;40208;39.778;2.710;2023-08-06T09:06:36;15.70;;;6.65;;
54307;SDS011;40208;39.778;2.710;2023-08-06T09:09:28;9.55;;;3.88;;
54307;SDS011;40208;39.778;2.710;2023-08-06T09:12:16;12.10;;;3.60;;
54307;SDS011;40208;39.778;2.710;2023-08-06T09:15:01;12.45;;;1.95;;
54307;SDS011;40208;39.778;2.710;2023-08-06T09:17:47;7.88;;;2.10;;
54307;SDS011;40208;39.778;2.710;2023-08-06T09:20:32;7.05;;;1.88;;
54307;SDS011;40208;39.778;2.710;2023-08-06T09:23:18;17.17;;;4.55;;
54307;SDS011;40208;39.778;2.710;2023-08-06T09:26:12;5.57;;;2.25;;
54307;SDS011;40208;39.778;2.710;2023-08-06T09:28:57;6.75;;;2.50;;
54307;SDS011;40208;39.778;2.710;2023-08-06T09:31:45;10.48;;;4.90;;
54307;SDS011;40208;39.778;2.710;2023-08-06T09:34:29;11.23;;;3.53;;
54307;SDS011;40208;39.778;2.710;2023-08-06T09:37:14;8.55;;;3.42;;
54307;SDS011;40208;39.778;2.710;2023-08-06T09:39:59;10.75;;;2.60;;
54307;SDS011;40208;39.778;2.710;2023-08-06T09:42:44;6.13;;;2.20;;
54307;SDS011;40208;39.778;2.710;2023-08-06T09:45:30;8.18;;;1.90;;
54307;SDS011;40208;39.778;2.710;2023-08-06T09:48:17;9.57;;;1.63;;
54307;SDS011;40208;39.778;2.710;2023-08-06T09:51:02;8.20;;;2.60;;
54307;SDS011;40208;39.778;2.710;2023-08-06T09:53:47;15.90;;;7.43;;
54307;SDS011;40208;39.778;2.710;2023-08-06T09:56:33;10.02;;;3.80;;
54307;SDS011;40208;39.778;2.710;2023-08-06T09:59:25;10.82;;;6.38;;
54307;SDS011;40208;39.778;2.710;2023-08-06T10:02:12;7.40;;;3.37;;
54307;SDS011;40208;39.778;2.710;2023-08-06T10:04:57;18.33;;;3.00;;
54307;SDS011;40208;39.778;2.710;2023-08-06T10:07:43;9.57;;;2.45;;
54307;SDS011;40208;39.778;2.710;2023-08-06T10:10:29;9.88;;;2.35;;
54307;SDS011;40208;39.778;2.710;2023-08-06T10:13:15;12.15;;;2.30;;
54307;SDS011;40208;39.778;2.710;2023-08-06T10:16:02;10.50;;;2.45;;
54307;SDS011;40208;39.778;2.710;2023-08-06T10:18:48;18.83;;;2.47;;
54307;SDS011;40208;39.778;2.710;2023-08-06T10:21:34;6.32;;;1.67;;
54307;SDS011;40208;39.778;2.710;2023-08-06T10:24:19;9.48;;;2.80;;
54307;SDS011;40208;39.778;2.710;2023-08-06T10:27:04;15.45;;;5.15;;
54307;SDS011;40208;39.778;2.710;2023-08-06T10:29:50;26.23;;;14.48;;
54307;SDS011;40208;39.778;2.710;2023-08-06T10:35:48;18.23;;;7.05;;
54307;SDS011;40208;39.778;2.710;2023-08-06T10:38:44;15.40;;;7.30;;
54307;SDS011;40208;39.778;2.710;2023-08-06T10:41:32;9.70;;;2.92;;
54307;SDS011;40208;39.778;2.710;2023-08-06T10:44:17;13.85;;;2.85;;
54307;SDS011;40208;39.778;2.710;2023-08-06T10:50:13;12.98;;;2.75;;
54307;SDS011;40208;39.778;2.710;2023-08-06T10:53:05;14.18;;;4.82;;
54307;SDS011;40208;39.778;2.710;2023-08-06T10:55:50;10.43;;;4.10;;
54307;SDS011;40208;39.778;2.710;2023-08-06T10:58:35;14.13;;;4.95;;
54307;SDS011;40208;39.778;2.710;2023-08-06T11:01:20;12.60;;;4.05;;
54307;SDS011;40208;39.778;2.710;2023-08-06T11:04:07;10.35;;;3.10;;
54307;SDS011;40208;39.778;2.710;2023-08-06T11:06:52;9.90;;;3.35;;
54307;SDS011;40208;39.778;2.710;2023-08-06T11:09:37;9.27;;;2.30;;
54307;SDS011;40208;39.778;2.710;2023-08-06T11:12:22;8.35;;;3.00;;
54307;SDS011;40208;39.778;2.710;2023-08-06T11:15:07;10.40;;;2.40;;
54307;SDS011;40208;39.778;2.710;2023-08-06T11:17:52;8.07;;;2.08;;
54307;SDS011;40208;39.778;2.710;2023-08-06T11:20:38;12.57;;;1.70;;
54307;SDS011;40208;39.778;2.710;2023-08-06T11:23:22;5.43;;;1.67;;
54307;SDS011;40208;39.778;2.710;2023-08-06T11:26:07;7.53;;;1.58;;
54307;SDS011;40208;39.778;2.710;2023-08-06T11:28:53;7.35;;;2.35;;
54307;SDS011;40208;39.778;2.710;2023-08-06T11:31:38;4.60;;;1.20;;
54307;SDS011;40208;39.778;2.710;2023-08-06T11:34:22;10.15;;;1.90;;
54307;SDS011;40208;39.778;2.710;2023-08-06T11:37:08;9.43;;;2.13;;
54307;SDS011;40208;39.778;2.710;2023-08-06T11:39:54;7.32;;;1.80;;
54307;SDS011;40208;39.778;2.710;2023-08-06T11:42:40;5.20;;;1.40;;
54307;SDS011;40208;39.778;2.710;2023-08-06T11:45:27;4.05;;;1.58;;
54307;SDS011;40208;39.778;2.710;2023-08-06T11:48:11;5.68;;;1.60;;
54307;SDS011;40208;39.778;2.710;2023-08-06T11:50:56;4.93;;;1.63;;
54307;SDS011;40208;39.778;2.710;2023-08-06T11:53:41;7.57;;;1.65;;
54307;SDS011;40208;39.778;2.710;2023-08-06T11:56:33;8.43;;;1.77;;
54307;SDS011;40208;39.778;2.710;2023-08-06T11:59:19;8.43;;;1.95;;
54307;SDS011;40208;39.778;2.710;2023-08-06T12:02:09;4.47;;;1.30;;
54307;SDS011;40208;39.778;2.710;2023-08-06T12:07:59;11.90;;;1.58;;
54307;SDS011;40208;39.778;2.710;2023-08-06T12:10:44;8.80;;;1.77;;
54307;SDS011;40208;39.778;2.710;2023-08-06T12:13:31;6.90;;;1.80;;
54307;SDS011;40208;39.778;2.710;2023-08-06T12:16:16;5.57;;;1.60;;
54307;SDS011;40208;39.778;2.710;2023-08-06T12:19:02;9.70;;;2.00;;
54307;SDS011;40208;39.778;2.710;2023-08-06T12:21:48;7.72;;;1.40;;
54307;SDS011;40208;39.778;2.710;2023-08-06T12:24:33;6.15;;;1.40;;
54307;SDS011;40208;39.778;2.710;2023-08-06T12:27:18;4.18;;;1.27;;
54307;SDS011;40208;39.778;2.710;2023-08-06T12:30:03;6.32;;;1.70;;
54307;SDS011;40208;39.778;2.710;2023-08-06T12:32:49;7.28;;;1.50;;
54307;SDS011;40208;39.778;2.710;2023-08-06T12:35:35;4.78;;;1.63;;
54307;SDS011;40208;39.778;2.710;2023-08-06T12:38:22;6.75;;;1.60;;
54307;SDS011;40208;39.778;2.710;2023-08-06T12:41:07;7.85;;;1.73;;
54307;SDS011;40208;39.778;2.710;2023-08-06T12:43:52;5.93;;;1.52;;
54307;SDS011;40208;39.778;2.710;2023-08-06T12:46:36;11.38;;;2.10;;
54307;SDS011;40208;39.778;2.710;2023-08-06T12:49:21;5.80;;;1.65;;
54307;SDS011;40208;39.778;2.710;2023-08-06T12:52:07;11.13;;;2.03;;
54307;SDS011;40208;39.778;2.710;2023-08-06T12:54:52;4.72;;;1.45;;
54307;SDS011;40208;39.778;2.710;2023-08-06T12:57:36;6.85;;;1.70;;
54307;SDS011;40208;39.778;2.710;2023-08-06T13:00:21;8.85;;;1.40;;
54307;SDS011;40208;39.778;2.710;2023-08-06T13:03:06;11.45;;;1.58;;
54307;SDS011;40208;39.778;2.710;2023-08-06T13:05:51;8.90;;;1.73;;
54307;SDS011;40208;39.778;2.710;2023-08-06T13:08:36;6.68;;;1.67;;
54307;SDS011;40208;39.778;2.710;2023-08-06T13:11:21;5.30;;;1.63;;
54307;SDS011;40208;39.778;2.710;2023-08-06T13:14:06;5.28;;;1.40;;
54307;SDS011;40208;39.778;2.710;2023-08-06T13:19:40;5.20;;;1.38;;
54307;SDS011;40208;39.778;2.710;2023-08-06T13:22:24;7.38;;;1.65;;
54307;SDS011;40208;39.778;2.710;2023-08-06T13:25:09;6.85;;;1.70;;
54307;SDS011;40208;39.778;2.710;2023-08-06T13:27:54;10.90;;;1.80;;
54307;SDS011;40208;39.778;2.710;2023-08-06T13:30:39;4.55;;;1.40;;
54307;SDS011;40208;39.778;2.710;2023-08-06T13:33:25;5.80;;;1.50;;
54307;SDS011;40208;39.778;2.710;2023-08-06T13:36:11;6.35;;;1.85;;
54307;SDS011;40208;39.778;2.710;2023-08-06T13:38:55;7.50;;;1.80;;
54307;SDS011;40208;39.778;2.710;2023-08-06T13:41:40;8.60;;;1.80;;
54307;SDS011;40208;39.778;2.710;2023-08-06T13:44:25;6.45;;;1.58;;
54307;SDS011;40208;39.778;2.710;2023-08-06T13:47:10;5.57;;;1.58;;
54307;SDS011;40208;39.778;2.710;2023-08-06T13:49:54;5.22;;;1.60;;
54307;SDS011;40208;39.778;2.710;2023-08-06T13:52:39;5.85;;;1.42;;
54307;SDS011;40208;39.778;2.710;2023-08-06T13:55:24;6.65;;;1.35;;
54307;SDS011;40208;39.778;2.710;2023-08-06T13:58:09;8.00;;;1.60;;
54307;SDS011;40208;39.778;2.710;2023-08-06T14:00:54;7.10;;;2.15;;
54307;SDS011;40208;39.778;2.710;2023-08-06T14:03:39;6.80;;;1.63;;
54307;SDS011;40208;39.778;2.710;2023-08-06T14:06:23;5.60;;;1.27;;
54307;SDS011;40208;39.778;2.710;2023-08-06T14:09:08;5.70;;;1.65;;
54307;SDS011;40208;39.778;2.710;2023-08-06T14:11:56;5.97;;;1.40;;
54307;SDS011;40208;39.778;2.710;2023-08-06T14:14:41;6.82;;;1.67;;
54307;SDS011;40208;39.778;2.710;2023-08-06T14:17:26;5.90;;;1.45;;
54307;SDS011;40208;39.778;2.710;2023-08-06T14:20:11;7.40;;;1.95;;
54307;SDS011;40208;39.778;2.710;2023-08-06T14:22:56;7.32;;;1.70;;
54307;SDS011;40208;39.778;2.710;2023-08-06T14:25:41;8.77;;;1.77;;
54307;SDS011;40208;39.778;2.710;2023-08-06T14:28:26;3.70;;;1.20;;
54307;SDS011;40208;39.778;2.710;2023-08-06T14:31:11;5.63;;;1.88;;
54307;SDS011;40208;39.778;2.710;2023-08-06T14:33:57;6.15;;;1.52;;
54307;SDS011;40208;39.778;2.710;2023-08-06T14:36:42;5.18;;;1.30;;
54307;SDS011;40208;39.778;2.710;2023-08-06T14:39:27;6.57;;;1.60;;
54307;SDS011;40208;39.778;2.710;2023-08-06T14:42:12;3.92;;;1.55;;
54307;SDS011;40208;39.778;2.710;2023-08-06T14:44:57;7.80;;;1.52;;
54307;SDS011;40208;39.778;2.710;2023-08-06T14:47:41;5.00;;;1.15;;
54307;SDS011;40208;39.778;2.710;2023-08-06T14:50:26;8.07;;;1.52;;
54307;SDS011;40208;39.778;2.710;2023-08-06T14:53:14;4.63;;;1.45;;
54307;SDS011;40208;39.778;2.710;2023-08-06T14:55:59;7.32;;;1.77;;
54307;SDS011;40208;39.778;2.710;2023-08-06T14:58:46;8.52;;;1.52;;
54307;SDS011;40208;39.778;2.710;2023-08-06T15:01:31;5.07;;;1.23;;
54307;SDS011;40208;39.778;2.710;2023-08-06T15:04:16;8.93;;;1.60;;
54307;SDS011;40208;39.778;2.710;2023-08-06T15:07:00;11.63;;;3.08;;
54307;SDS011;40208;39.778;2.710;2023-08-06T15:09:45;5.05;;;1.27;;
54307;SDS011;40208;39.778;2.710;2023-08-06T15:12:31;5.22;;;1.73;;
54307;SDS011;40208;39.778;2.710;2023-08-06T15:15:16;2.95;;;1.25;;
54307;SDS011;40208;39.778;2.710;2023-08-06T15:18:01;8.43;;;1.60;;
54307;SDS011;40208;39.778;2.710;2023-08-06T15:20:45;6.90;;;1.33;;
54307;SDS011;40208;39.778;2.710;2023-08-06T15:23:30;6.53;;;1.40;;
54307;SDS011;40208;39.778;2.710;2023-08-06T15:26:15;4.53;;;1.58;;
54307;SDS011;40208;39.778;2.710;2023-08-06T15:29:00;5.97;;;1.63;;
54307;SDS011;40208;39.778;2.710;2023-08-06T15:31:45;9.63;;;1.83;;
54307;SDS011;40208;39.778;2.710;2023-08-06T15:34:30;4.72;;;1.40;;
54307;SDS011;40208;39.778;2.710;2023-08-06T15:37:14;4.63;;;1.25;;
54307;SDS011;40208;39.778;2.710;2023-08-06T15:40:00;7.00;;;1.40;;
54307;SDS011;40208;39.778;2.710;2023-08-06T15:42:44;4.55;;;1.40;;
54307;SDS011;40208;39.778;2.710;2023-08-06T15:45:29;4.55;;;1.58;;
54307;SDS011;40208;39.778;2.710;2023-08-06T15:48:14;7.82;;;2.10;;
54307;SDS011;40208;39.778;2.710;2023-08-06T15:50:59;4.38;;;1.05;;
54307;SDS011;40208;39.778;2.710;2023-08-06T15:53:44;4.28;;;1.30;;
54307;SDS011;40208;39.778;2.710;2023-08-06T15:56:29;5.82;;;1.77;;
54307;SDS011;40208;39.778;2.710;2023-08-06T15:59:24;7.13;;;1.67;;
54307;SDS011;40208;39.778;2.710;2023-08-06T16:02:09;11.38;;;1.77;;
54307;SDS011;40208;39.778;2.710;2023-08-06T16:04:55;8.15;;;1.90;;
54307;SDS011;40208;39.778;2.710;2023-08-06T16:07:40;4.15;;;1.38;;
54307;SDS011;40208;39.778;2.710;2023-08-06T16:10:25;6.47;;;1.63;;
54307;SDS011;40208;39.778;2.710;2023-08-06T16:13:10;4.20;;;1.30;;
54307;SDS011;40208;39.778;2.710;2023-08-06T16:15:54;6.88;;;1.35;;
54307;SDS011;40208;39.778;2.710;2023-08-06T16:18:39;6.28;;;1.58;;
54307;SDS011;40208;39.778;2.710;2023-08-06T16:21:24;5.45;;;1.30;;
54307;SDS011;40208;39.778;2.710;2023-08-06T16:24:09;4.22;;;1.38;;
54307;SDS011;40208;39.778;2.710;2023-08-06T16:26:54;5.00;;;1.67;;
54307;SDS011;40208;39.778;2.710;2023-08-06T16:29:40;1.60;;;1.10;;
54307;SDS011;40208;39.778;2.710;2023-08-06T16:32:25;4.68;;;1.48;;
54307;SDS011;40208;39.778;2.710;2023-08-06T16:35:10;5.95;;;1.55;;
54307;SDS011;40208;39.778;2.710;2023-08-06T16:37:55;8.93;;;1.60;;
54307;SDS011;40208;39.778;2.710;2023-08-06T16:40:39;3.72;;;1.30;;
54307;SDS011;40208;39.778;2.710;2023-08-06T16:43:24;6.15;;;1.50;;
54307;SDS011;40208;39.778;2.710;2023-08-06T16:46:09;4.20;;;1.60;;
54307;SDS011;40208;39.778;2.710;2023-08-06T16:48:54;7.57;;;1.70;;
54307;SDS011;40208;39.778;2.710;2023-08-06T16:51:39;7.95;;;1.83;;